Time;durP1;ratioP1;P1;durP2;ratioP2;P2;SDS_P1;SDS_P2;PMS_P1;PMS_P2;Temp;Humidity;BMP_temperature;BMP_pressure;BME280_temperature;BME280_humidity;BME280_pressure;Samples;Min_cycle;Max_cycle;Signal;HPM_P1;HPM_P2
2022/08/07 00:00:14;;;;;;;3.70;2.40;;;;;;;24.01;47.89;99734.81;4459161;32;35019;-62
2022/08/07 00:02:49;;;;;;;4.32;2.37;;;;;;;23.79;48.54;99733.19;4457949;32;33715;-63
2022/08/07 00:05:20;;;;;;;4.40;2.87;;;;;;;23.43;49.34;99745.94;4472251;32;33952;-62
2022/08/07 00:07:54;;;;;;;5.50;3.12;;;;;;;23.35;49.59;99740.66;4455781;32;33941;-61
2022/08/07 00:10:30;;;;;;;5.95;3.00;;;;;;;23.78;48.53;99739.72;4459406;32;33310;-63
2022/08/07 00:13:02;;;;;;;6.50;2.83;;;;;;;23.90;48.33;99741.69;4458051;32;34761;-63
2022/08/07 00:15:51;;;;;;;5.12;2.92;;;;;;;24.29;47.27;99736.63;4459628;32;32557;-61
2022/08/07 00:18:23;;;;;;;4.22;2.72;;;;;;;23.98;48.47;99740.72;4462877;32;33675;-62
2022/08/07 00:20:58;;;;;;;5.57;2.90;;;;;;;24.42;47.01;99733.13;4459068;32;33835;-62
2022/08/07 00:23:33;;;;;;;4.78;3.05;;;;;;;24.28;47.65;99733.06;4460134;32;32343;-61
2022/08/07 00:26:05;;;;;;;5.47;3.05;;;;;;;24.10;47.90;99724.56;4451803;32;33965;-63
2022/08/07 00:29:05;;;;;;;4.65;2.75;;;;;;;24.15;47.70;99724.81;4457709;32;34336;-63
2022/08/07 00:31:49;;;;;;;4.95;2.75;;;;;;;23.79;49.12;99735.94;4461211;32;34273;-61
2022/08/07 00:34:29;;;;;;;5.72;2.90;;;;;;;24.47;46.85;99731.47;4461017;32;32008;-63
2022/08/07 00:37:00;;;;;;;5.47;2.67;;;;;;;24.26;47.35;99737.88;4463702;32;34949;-63
2022/08/07 00:39:36;;;;;;;4.82;2.50;;;;;;;24.18;48.18;99735.34;4460467;32;32620;-62
2022/08/07 00:42:11;;;;;;;6.07;2.90;;;;;;;24.72;46.46;99739.97;4459469;32;32712;-63
2022/08/07 00:44:42;;;;;;;4.93;3.22;;;;;;;24.86;45.98;99736.22;4452142;32;33485;-62
2022/08/07 00:47:12;;;;;;;4.93;3.03;;;;;;;24.73;46.34;99729.88;4452419;32;33970;-63
2022/08/07 00:50:04;;;;;;;4.93;3.15;;;;;;;24.41;47.01;99726.81;4455791;32;34057;-63
2022/08/07 00:52:57;;;;;;;6.35;3.10;;;;;;;24.75;46.09;99725.88;4463476;32;33992;-62
2022/08/07 00:55:28;;;;;;;5.78;3.30;;;;;;;24.76;46.19;99727.56;4457172;32;33671;-62
2022/08/07 00:58:18;;;;;;;4.68;3.00;;;;;;;25.13;45.14;99724.47;4457350;32;32555;-62
2022/08/07 01:00:53;;;;;;;4.47;2.97;;;;;;;24.55;46.52;99714.03;4466703;32;34020;-63
2022/08/07 01:03:25;;;;;;;5.28;3.12;;;;;;;24.24;47.17;99719.97;4471628;32;35251;-61
2022/08/07 01:06:14;;;;;;;5.07;3.33;;;;;;;24.64;46.34;99721.84;4484931;32;32443;-61
2022/08/07 01:08:48;;;;;;;5.27;3.23;;;;;;;24.67;46.33;99717.00;4462323;32;33927;-61
2022/08/07 01:11:22;;;;;;;4.87;3.27;;;;;;;24.42;46.72;99717.56;4465083;32;35053;-61
2022/08/07 01:14:09;;;;;;;5.12;3.22;;;;;;;24.17;47.45;99722.69;4462672;32;34919;-62
2022/08/07 01:16:40;;;;;;;6.50;3.53;;;;;;;24.28;47.68;99719.37;4460928;32;33585;-62
2022/08/07 01:19:12;;;;;;;5.12;3.08;;;;;;;24.52;46.64;99731.69;4465209;32;34609;-61
2022/08/07 01:21:50;;;;;;;5.82;3.80;;;;;;;24.24;47.31;99723.59;4458145;32;33843;-61
2022/08/07 01:24:21;;;;;;;5.07;3.40;;;;;;;24.47;46.84;99719.69;4447062;32;34703;-62
2022/08/07 01:26:50;;;;;;;6.03;3.60;;;;;;;24.88;45.94;99722.31;4463308;32;34556;-61
2022/08/07 01:29:25;;;;;;;7.47;3.70;;;;;;;24.72;46.06;99726.28;4460235;32;33926;-61
2022/08/07 01:32:08;;;;;;;6.78;3.53;;;;;;;24.74;46.15;99718.69;4454224;32;33896;-62
2022/08/07 01:34:44;;;;;;;5.85;3.50;;;;;;;24.84;45.77;99719.13;4463987;32;34092;-61
2022/08/07 01:37:16;;;;;;;5.17;3.47;;;;;;;25.16;45.04;99715.84;4439991;32;33462;-61
2022/08/07 01:39:52;;;;;;;6.22;3.08;;;;;;;24.83;45.66;99713.88;4449969;32;33820;-62
2022/08/07 01:42:33;;;;;;;5.35;3.33;;;;;;;24.84;45.74;99721.03;4452311;32;35250;-62
2022/08/07 01:45:25;;;;;;;5.60;3.22;;;;;;;24.88;45.65;99716.84;4456995;32;33829;-61
2022/08/07 01:48:11;;;;;;;4.93;3.28;;;;;;;24.68;46.04;99725.00;4455668;32;33338;-61
2022/08/07 01:51:07;;;;;;;5.82;3.30;;;;;;;24.92;45.84;99720.84;4461119;32;34143;-61
2022/08/07 01:53:56;;;;;;;6.05;3.55;;;;;;;24.94;45.61;99724.19;4446001;32;35337;-62
2022/08/07 01:56:57;;;;;;;5.57;3.80;;;;;;;24.63;46.40;99717.44;4453551;32;35023;-62
2022/08/07 01:59:54;;;;;;;5.37;3.62;;;;;;;24.10;47.66;99722.66;4451685;32;33248;-61
2022/08/07 02:02:32;;;;;;;9.90;3.70;;;;;;;24.28;47.27;99715.81;4448664;32;31236;-61
2022/08/07 02:05:33;;;;;;;5.65;3.60;;;;;;;24.30;47.26;99725.50;4457257;32;35631;-62
2022/08/07 02:08:21;;;;;;;5.45;3.83;;;;;;;24.58;46.74;99721.81;4455972;32;34088;-62
2022/08/07 02:10:55;;;;;;;5.72;3.53;;;;;;;24.62;46.47;99728.56;4452573;32;33571;-61
2022/08/07 02:13:28;;;;;;;6.40;3.72;;;;;;;24.14;47.69;99723.97;4459299;32;33742;-61
2022/08/07 02:16:28;;;;;;;5.32;3.50;;;;;;;24.61;46.59;99725.00;4457464;32;35049;-61
2022/08/07 02:19:05;;;;;;;5.55;3.62;;;;;;;24.36;47.12;99732.03;4449482;32;34165;-62
2022/08/07 02:21:57;;;;;;;5.25;3.15;;;;;;;24.09;47.70;99720.13;4447003;32;33659;-62
2022/08/07 02:24:29;;;;;;;6.43;4.10;;;;;;;23.97;48.21;99728.06;4455160;32;34742;-61
2022/08/07 02:27:00;;;;;;;5.60;3.62;;;;;;;24.16;47.73;99737.41;4443270;32;34115;-62
2022/08/07 02:29:30;;;;;;;5.07;3.70;;;;;;;24.10;47.86;99743.69;4433573;32;35258;-61
2022/08/07 02:32:03;;;;;;;7.18;3.92;;;;;;;24.43;46.96;99743.03;4429831;32;34664;-61
2022/08/07 02:34:31;;;;;;;4.20;3.05;;;;;;;24.08;47.71;99730.25;4435791;32;33606;-62
2022/08/07 02:37:07;;;;;;;5.87;4.00;;;;;;;24.00;47.97;99732.28;4434614;32;36339;-62
2022/08/07 02:39:39;;;;;;;6.03;4.30;;;;;;;24.08;47.89;99738.44;4437254;32;35044;-62
2022/08/07 02:42:31;;;;;;;5.28;3.75;;;;;;;24.27;47.64;99739.59;4430939;32;33532;-62
2022/08/07 02:45:04;;;;;;;7.07;4.03;;;;;;;24.18;47.53;99743.53;4425457;32;33598;-66
2022/08/07 02:47:55;;;;;;;6.35;3.78;;;;;;;24.49;46.62;99747.69;4430103;32;33215;-62
2022/08/07 02:50:31;;;;;;;4.68;3.05;;;;;;;24.23;47.36;99751.13;4435559;32;34288;-62
2022/08/07 02:53:06;;;;;;;5.85;3.12;;;;;;;23.76;48.43;99744.56;4449533;32;34482;-62
2022/08/07 02:55:42;;;;;;;5.70;4.07;;;;;;;24.20;47.30;99744.16;4419988;32;34807;-62
2022/08/07 02:58:34;;;;;;;5.82;3.90;;;;;;;24.55;46.52;99742.22;4420609;32;35017;-61
2022/08/07 03:01:09;;;;;;;8.18;4.32;;;;;;;24.26;47.01;99746.09;4422753;32;34217;-61
2022/08/07 03:04:00;;;;;;;6.30;4.37;;;;;;;24.03;47.74;99745.56;4434143;32;33506;-62
2022/08/07 03:06:35;;;;;;;5.72;3.67;;;;;;;24.50;46.64;99747.50;4430078;32;33842;-62
2022/08/07 03:09:12;;;;;;;5.70;3.90;;;;;;;24.42;46.92;99746.81;4435223;32;35429;-62
2022/08/07 03:12:06;;;;;;;6.03;3.70;;;;;;;24.79;45.99;99735.34;4430790;32;34397;-63
2022/08/07 03:14:43;;;;;;;5.62;3.75;;;;;;;24.12;47.55;99744.34;4422652;32;33417;-63
2022/08/07 03:17:19;;;;;;;5.50;3.95;;;;;;;24.60;46.37;99744.38;4424155;32;34259;-62
2022/08/07 03:19:52;;;;;;;5.82;3.90;;;;;;;24.38;46.80;99732.69;4415451;32;33942;-62
2022/08/07 03:22:23;;;;;;;5.82;3.95;;;;;;;23.97;47.94;99738.16;4424852;32;33906;-62
2022/08/07 03:24:58;;;;;;;5.47;4.05;;;;;;;24.45;46.63;99736.31;4423851;32;31808;-61
2022/08/07 03:27:32;;;;;;;5.47;4.10;;;;;;;24.52;46.41;99739.06;4447030;32;33700;-61
2022/08/07 03:30:21;;;;;;;6.60;4.10;;;;;;;24.56;46.30;99743.09;4442761;32;34788;-61
2022/08/07 03:32:51;;;;;;;4.75;3.15;;;;;;;24.01;47.78;99743.00;4457386;32;33351;-61
2022/08/07 03:35:27;;;;;;;5.85;4.22;;;;;;;24.19;47.32;99737.00;4437044;32;33442;-62
2022/08/07 03:38:19;;;;;;;6.03;4.00;;;;;;;24.41;46.71;99740.50;4453491;32;33660;-61
2022/08/07 03:41:01;;;;;;;5.50;3.87;;;;;;;24.18;47.36;99733.44;4437876;32;34457;-61
2022/08/07 03:43:34;;;;;;;5.82;3.65;;;;;;;24.55;46.54;99733.19;4439249;32;33934;-60
2022/08/07 03:46:05;;;;;;;7.25;4.50;;;;;;;24.51;46.79;99740.97;4457797;32;34288;-61
2022/08/07 03:48:46;;;;;;;5.78;3.92;;;;;;;24.96;45.60;99745.91;4451738;32;35168;-62
2022/08/07 03:51:33;;;;;;;5.40;3.90;;;;;;;24.66;46.04;99756.38;4464115;32;35064;-61
2022/08/07 03:54:15;;;;;;;5.60;3.72;;;;;;;25.02;45.10;99756.03;4446620;32;34358;-61
2022/08/07 03:57:06;;;;;;;5.57;3.95;;;;;;;24.83;45.51;99758.53;4463842;32;32958;-61
2022/08/07 03:59:35;;;;;;;6.22;3.87;;;;;;;24.59;46.15;99762.69;4445532;32;33981;-61
2022/08/07 04:02:16;;;;;;;5.57;3.33;;;;;;;24.31;46.95;99759.16;4438620;32;34085;-62
2022/08/07 04:04:48;;;;;;;;;;;;;;;24.65;46.09;99761.00;4441960;32;33446;-61
2022/08/07 04:07:17;;;;;;;6.90;4.15;;;;;;;24.52;46.47;99769.16;4441548;32;33395;-61
2022/08/07 04:09:52;;;;;;;5.55;3.67;;;;;;;23.86;47.85;99775.94;4453708;32;33647;-61
2022/08/07 04:12:20;;;;;;;8.07;4.10;;;;;;;24.63;46.05;99777.63;4448917;32;35215;-61
2022/08/07 04:14:56;;;;;;;5.30;3.62;;;;;;;24.46;46.41;99779.03;4457872;32;34126;-61
2022/08/07 04:17:27;;;;;;;6.37;3.87;;;;;;;24.43;46.67;99781.31;4452702;32;33473;-61
2022/08/07 04:20:15;;;;;;;7.00;3.42;;;;;;;24.68;46.23;99784.38;4447253;32;33661;-61
2022/08/07 04:22:48;;;;;;;9.20;3.60;;;;;;;24.91;45.65;99787.63;4439692;32;34000;-61
2022/08/07 04:25:37;;;;;;;5.32;3.62;;;;;;;24.58;46.58;99787.50;4451295;32;33013;-61
2022/08/07 04:28:09;;;;;;;6.10;3.50;;;;;;;24.74;46.34;99800.81;4459168;32;34791;-61
2022/08/07 04:30:40;;;;;;;6.90;3.92;;;;;;;24.37;47.22;99802.97;4461734;32;33990;-61
2022/08/07 04:33:25;;;;;;;5.75;3.62;;;;;;;24.38;47.25;99796.44;4455550;32;34107;-61
2022/08/07 04:35:57;;;;;;;6.12;3.33;;;;;;;24.30;47.42;99791.16;4450120;32;34079;-62
2022/08/07 04:38:26;;;;;;;5.87;4.03;;;;;;;24.04;48.04;99794.53;4458316;32;34202;-62
2022/08/07 04:40:56;;;;;;;6.22;3.85;;;;;;;23.85;48.37;99795.25;4457776;32;33374;-62
2022/08/07 04:43:32;;;;;;;5.62;3.80;;;;;;;24.61;46.69;99801.59;4451406;32;34034;-62
2022/08/07 04:46:31;;;;;;;5.95;4.12;;;;;;;24.56;46.64;99803.28;4447659;32;34192;-62
2022/08/07 04:49:18;;;;;;;6.12;4.28;;;;;;;24.44;47.13;99800.28;4460518;32;34096;-62
2022/08/07 04:52:02;;;;;;;5.57;3.47;;;;;;;24.61;46.79;99804.34;4452930;32;32323;-62
2022/08/07 04:54:42;;;;;;;7.10;4.15;;;;;;;24.26;47.52;99806.25;4458443;32;35161;-62
2022/08/07 04:57:24;;;;;;;8.57;4.30;;;;;;;24.28;47.34;99806.91;4457747;32;32973;-61
2022/08/07 05:00:18;;;;;;;4.70;3.30;;;;;;;24.01;47.93;99800.41;4460822;32;33507;-62
2022/08/07 05:03:05;;;;;;;5.70;3.83;;;;;;;24.05;47.87;99807.19;4463432;32;34584;-62
2022/08/07 05:05:57;;;;;;;6.10;3.93;;;;;;;24.19;47.82;99799.91;4462978;32;34398;-62
2022/08/07 05:08:49;;;;;;;5.60;3.80;;;;;;;24.42;47.32;99802.37;4458543;32;34095;-64
2022/08/07 05:11:31;;;;;;;5.78;3.70;;;;;;;24.68;46.58;99798.06;4451098;32;33820;-62
2022/08/07 05:14:40;;;;;;;5.35;3.50;;;;;;;24.28;47.35;99798.69;4444648;32;34021;-61
2022/08/07 05:17:27;;;;;;;7.10;4.00;;;;;;;24.59;46.93;99802.84;4455561;32;33845;-61
2022/08/07 05:20:23;;;;;;;6.22;3.80;;;;;;;24.74;46.64;99802.72;4446348;32;34963;-62
2022/08/07 05:22:58;;;;;;;5.82;4.00;;;;;;;24.55;47.00;99807.88;4440361;32;34635;-61
2022/08/07 05:25:33;;;;;;;7.60;3.67;;;;;;;24.37;47.59;99811.16;4428073;32;33537;-61
2022/08/07 05:28:21;;;;;;;5.00;3.17;;;;;;;24.69;46.66;99817.03;4444953;32;34004;-62
2022/08/07 05:30:57;;;;;;;6.28;3.50;;;;;;;25.04;45.71;99825.09;4455386;32;32662;-62
2022/08/07 05:33:27;;;;;;;6.20;4.15;;;;;;;25.15;45.56;99821.81;4444787;32;33328;-62
2022/08/07 05:35:59;;;;;;;5.68;3.80;;;;;;;24.36;47.06;99823.13;4442780;32;34390;-62
2022/08/07 05:38:27;;;;;;;6.03;3.53;;;;;;;25.12;45.41;99819.47;4440918;32;33949;-61
2022/08/07 05:41:15;;;;;;;6.12;3.70;;;;;;;25.21;45.38;99828.34;4444067;32;33883;-61
2022/08/07 05:43:51;;;;;;;6.18;3.67;;;;;;;25.10;45.80;99827.03;4446075;32;34781;-63
2022/08/07 05:46:39;;;;;;;6.37;3.55;;;;;;;24.93;46.38;99831.19;4450291;32;33917;-62
2022/08/07 05:49:13;;;;;;;4.93;3.37;;;;;;;25.14;45.62;99825.59;4445531;32;33814;-62
2022/08/07 05:51:49;;;;;;;5.03;3.10;;;;;;;24.64;46.95;99827.72;4442078;32;33876;-62
2022/08/07 05:54:17;;;;;;;5.97;3.70;;;;;;;25.25;45.72;99833.19;4449505;32;33574;-62
2022/08/07 05:57:03;;;;;;;5.68;3.60;;;;;;;25.31;45.21;99829.62;4463889;32;33793;-62
2022/08/07 05:59:31;;;;;;;6.18;3.42;;;;;;;25.44;44.96;99831.53;4455477;32;33891;-63
2022/08/07 06:02:24;;;;;;;8.00;3.42;;;;;;;25.61;44.80;99825.66;4445747;32;34104;-62
2022/08/07 06:05:04;;;;;;;6.50;3.55;;;;;;;25.68;44.33;99831.97;4459274;32;34563;-61
2022/08/07 06:07:33;;;;;;;6.07;3.25;;;;;;;25.82;44.10;99830.97;4448476;32;32265;-62
2022/08/07 06:10:27;;;;;;;5.18;3.12;;;;;;;25.90;43.96;99838.09;4456536;32;32825;-62
2022/08/07 06:13:00;;;;;;;5.20;3.15;;;;;;;25.96;44.21;99831.78;4450373;32;34188;-61
2022/08/07 06:15:30;;;;;;;4.12;2.45;;;;;;;25.93;43.83;99837.69;4460923;32;33591;-62
2022/08/07 06:18:11;;;;;;;6.50;3.05;;;;;;;25.95;43.67;99843.81;4451189;32;34126;-62
2022/08/07 06:20:43;;;;;;;6.90;3.05;;;;;;;26.07;43.77;99847.59;4462397;32;37079;-62
2022/08/07 06:23:29;;;;;;;6.07;3.35;;;;;;;25.94;44.03;99850.31;4439304;32;33157;-62
2022/08/07 06:26:20;;;;;;;4.82;3.00;;;;;;;25.87;43.70;99844.00;4438156;32;32120;-62
2022/08/07 06:28:56;;;;;;;8.20;3.35;;;;;;;26.14;43.36;99842.09;4457492;32;33926;-63
2022/08/07 06:31:30;;;;;;;4.78;2.87;;;;;;;26.02;43.57;99852.88;4463910;32;33999;-62
2022/08/07 06:34:17;;;;;;;6.50;3.00;;;;;;;26.07;43.47;99853.09;4450113;32;32807;-66
2022/08/07 06:36:47;;;;;;;10.95;4.68;;;;;;;26.16;43.50;99849.06;4463087;32;32836;-62
2022/08/07 06:39:20;;;;;;;6.07;3.30;;;;;;;26.28;43.11;99851.97;4449181;32;35022;-63
2022/08/07 06:42:18;;;;;;;5.03;3.20;;;;;;;26.31;43.20;99854.28;4450655;32;33959;-63
2022/08/07 06:44:53;;;;;;;5.75;3.30;;;;;;;26.41;43.07;99854.69;4447261;32;34175;-64
2022/08/07 06:47:21;;;;;;;4.68;2.97;;;;;;;26.32;43.49;99860.62;4443199;32;33230;-65
2022/08/07 06:49:54;;;;;;;6.37;3.37;;;;;;;26.37;43.79;99871.81;4447394;32;34823;-63
2022/08/07 06:52:31;;;;;;;6.35;3.05;;;;;;;26.34;43.70;99869.50;4443937;32;32254;-64
2022/08/07 06:55:13;;;;;;;5.45;3.40;;;;;;;26.52;43.57;99869.69;4439199;32;34165;-64
2022/08/07 06:58:07;;;;;;;4.93;3.22;;;;;;;26.58;43.60;99868.84;4441100;32;32552;-64
2022/08/07 07:00:40;;;;;;;6.07;3.20;;;;;;;26.58;43.28;99862.47;4436583;32;33892;-63
2022/08/07 07:03:09;;;;;;;5.07;3.10;;;;;;;26.60;42.92;99863.13;4458322;32;34031;-63
2022/08/07 07:06:07;;;;;;;6.05;3.45;;;;;;;26.43;43.68;99859.97;4451070;32;35160;-63
2022/08/07 07:08:38;;;;;;;6.10;3.05;;;;;;;26.55;43.46;99855.53;4462212;32;33460;-62
2022/08/07 07:11:19;;;;;;;6.78;3.15;;;;;;;26.71;42.32;99852.31;4459535;32;34942;-63
2022/08/07 07:14:07;;;;;;;5.05;3.20;;;;;;;26.69;42.82;99857.16;4460596;32;33873;-62
2022/08/07 07:16:38;;;;;;;5.47;3.25;;;;;;;26.73;42.78;99854.00;4446027;32;33256;-62
2022/08/07 07:19:21;;;;;;;5.07;3.08;;;;;;;26.87;42.75;99863.84;4440002;32;34761;-64
2022/08/07 07:22:13;;;;;;;6.35;3.35;;;;;;;26.94;42.82;99861.94;4453747;32;33475;-62
2022/08/07 07:25:03;;;;;;;5.68;2.85;;;;;;;27.01;42.92;99862.72;4460940;32;32823;-62
2022/08/07 07:28:17;;;;;;;6.62;3.00;;;;;;;27.04;42.49;99865.03;4463767;32;33799;-62
2022/08/07 07:31:13;;;;;;;5.05;2.70;;;;;;;27.17;42.57;99859.50;4461940;32;32272;-62
2022/08/07 07:33:51;;;;;;;4.22;2.58;;;;;;;27.24;41.26;99862.22;4451935;32;34879;-62
2022/08/07 07:36:24;;;;;;;7.97;2.87;;;;;;;27.32;41.02;99861.09;4458478;32;34845;-62
2022/08/07 07:39:03;;;;;;;5.15;2.30;;;;;;;27.29;40.59;99861.56;4456911;32;32934;-61
2022/08/07 07:41:33;;;;;;;3.65;2.17;;;;;;;27.33;40.67;99851.81;4454273;32;33698;-62
2022/08/07 07:44:20;;;;;;;4.25;2.45;;;;;;;27.32;40.43;99856.47;4446659;32;33896;-62
2022/08/07 07:46:54;;;;;;;3.35;2.20;;;;;;;27.52;39.94;99853.56;4453087;32;33981;-62
2022/08/07 07:49:43;;;;;;;4.65;2.40;;;;;;;27.52;40.48;99852.72;4447235;32;33745;-63
2022/08/07 07:52:31;;;;;;;5.82;2.10;;;;;;;27.73;39.93;99852.34;4452387;32;33700;-62
2022/08/07 07:55:00;;;;;;;4.85;2.12;;;;;;;27.79;39.93;99856.97;4456033;32;33599;-62
2022/08/07 07:57:33;;;;;;;4.18;2.12;;;;;;;27.79;39.66;99853.38;4453378;32;32878;-62
2022/08/07 08:00:20;;;;;;;4.35;2.10;;;;;;;27.89;39.36;99856.47;4455175;32;34493;-62
2022/08/07 08:03:05;;;;;;;4.32;2.30;;;;;;;27.97;38.89;99855.34;4463909;32;34659;-64
2022/08/07 08:05:36;;;;;;;3.80;2.00;;;;;;;28.08;38.83;99865.59;4444745;32;34908;-64
2022/08/07 08:08:27;;;;;;;3.05;1.92;;;;;;;27.98;38.91;99855.13;4455000;32;35015;-62
2022/08/07 08:11:07;;;;;;;4.53;2.10;;;;;;;28.05;38.73;99858.63;4449895;32;34064;-62
2022/08/07 08:13:44;;;;;;;2.85;1.60;;;;;;;28.27;38.26;99864.56;4455009;32;33641;-62
2022/08/07 08:16:26;;;;;;;3.10;1.52;;;;;;;28.06;38.53;99859.50;4454685;32;35302;-62
2022/08/07 08:18:59;;;;;;;3.83;1.85;;;;;;;27.82;37.46;99852.94;4465972;32;33814;-62
2022/08/07 08:27:53;;;;;;;3.50;1.75;;;;;;;27.93;37.71;99862.34;4454065;32;32268;-62
2022/08/07 08:30:28;;;;;;;4.28;1.60;;;;;;;28.29;37.46;99861.59;4456275;32;34809;-63
2022/08/07 08:33:02;;;;;;;3.87;1.92;;;;;;;28.27;37.18;99859.06;4456026;32;33333;-63
2022/08/07 08:35:32;;;;;;;3.22;1.67;;;;;;;28.40;36.75;99849.84;4459345;32;33646;-62
2022/08/07 08:38:20;;;;;;;4.50;1.75;;;;;;;28.22;36.57;99863.56;4450725;32;32435;-62
2022/08/07 08:41:01;;;;;;;3.50;1.73;;;;;;;28.46;36.16;99859.97;4453877;32;32667;-62
2022/08/07 08:43:29;;;;;;;4.12;1.98;;;;;;;28.06;36.74;99865.84;4446899;32;34985;-64
2022/08/07 08:46:47;;;;;;;3.25;1.80;;;;;;;28.29;37.03;99867.94;4463677;32;33818;-62
2022/08/07 08:49:25;;;;;;;;;;;;;;;28.29;36.95;99858.84;4442200;32;33782;-62
2022/08/07 08:52:29;;;;;;;3.53;1.70;;;;;;;27.80;37.90;99864.19;4446331;32;34193;-61
2022/08/07 08:55:21;;;;;;;3.65;1.80;;;;;;;28.25;36.70;99869.47;4451987;32;33942;-63
2022/08/07 08:58:30;;;;;;;4.65;1.90;;;;;;;28.53;35.86;99857.97;4441899;32;33135;-64
2022/08/07 09:01:19;;;;;;;3.33;1.90;;;;;;;28.31;37.17;99860.31;4454294;32;32652;-62
2022/08/07 09:04:30;;;;;;;4.15;1.65;;;;;;;28.77;35.99;99858.97;4438268;32;35122;-63
2022/08/07 09:07:23;;;;;;;3.17;1.92;;;;;;;29.06;34.00;99858.41;4435455;32;31723;-62
2022/08/07 09:10:00;;;;;;;5.37;1.92;;;;;;;28.71;35.26;99859.03;4466703;32;34664;-64
2022/08/07 09:12:48;;;;;;;5.03;2.00;;;;;;;28.61;35.34;99862.34;4463450;32;34604;-63
2022/08/07 09:15:43;;;;;;;3.37;2.00;;;;;;;28.68;36.37;99856.75;4459667;32;34939;-63
2022/08/07 09:18:59;;;;;;;4.40;2.30;;;;;;;28.61;36.01;99870.59;4465493;32;33986;-62
2022/08/07 09:21:35;;;;;;;4.12;1.85;;;;;;;28.67;35.60;99858.66;4455818;32;33613;-62
2022/08/07 09:24:38;;;;;;;3.83;2.20;;;;;;;28.90;35.59;99860.72;4463640;32;34119;-62
2022/08/07 09:27:41;;;;;;;3.35;2.12;;;;;;;29.21;35.03;99862.44;4457403;32;35193;-62
2022/08/07 09:31:02;;;;;;;5.05;2.28;;;;;;;29.36;35.18;99853.72;4459188;32;34160;-62
2022/08/07 09:34:14;;;;;;;8.55;3.37;;;;;;;29.04;35.32;99858.63;4461075;32;33813;-62
2022/08/07 09:36:44;;;;;;;5.62;2.10;;;;;;;29.28;34.82;99845.81;4367366;32;33839;-63
2022/08/07 09:39:21;;;;;;;3.95;2.33;;;;;;;29.43;35.01;99845.34;4457137;32;33938;-62
2022/08/07 09:42:19;;;;;;;5.28;2.65;;;;;;;29.45;35.33;99845.97;4462243;32;34197;-63
2022/08/07 09:45:00;;;;;;;5.53;2.37;;;;;;;29.49;34.91;99845.25;4449200;32;33430;-63
2022/08/07 09:48:18;;;;;;;5.18;2.55;;;;;;;29.46;35.20;99842.13;4439235;32;35158;-62
2022/08/07 09:51:11;;;;;;;4.87;2.33;;;;;;;29.43;34.99;99843.44;4455786;32;35122;-63
2022/08/07 09:54:01;;;;;;;4.30;2.80;;;;;;;29.90;34.38;99839.94;4463043;32;33874;-64
2022/08/07 09:56:49;;;;;;;5.40;3.15;;;;;;;29.63;34.98;99834.03;4456477;32;32273;-63
2022/08/07 09:59:50;;;;;;;5.93;2.85;;;;;;;29.68;35.52;99836.94;4466814;32;34342;-62
2022/08/07 10:02:55;;;;;;;4.95;3.00;;;;;;;29.66;35.26;99830.81;4455328;32;32704;-62
2022/08/07 10:05:55;;;;;;;4.60;3.08;;;;;;;29.96;34.91;99830.72;4459374;32;32744;-64
2022/08/07 10:08:51;;;;;;;6.22;3.03;;;;;;;29.67;35.55;99830.56;4438860;32;32077;-63
2022/08/07 10:11:54;;;;;;;8.13;3.50;;;;;;;29.65;35.62;99818.09;4442907;32;35057;-62
2022/08/07 10:15:22;;;;;;;5.07;3.60;;;;;;;29.85;35.39;99818.59;4442817;32;33858;-63
2022/08/07 10:18:17;;;;;;;5.28;3.50;;;;;;;29.93;35.09;99815.47;4419275;32;32795;-62
2022/08/07 10:21:16;;;;;;;5.93;3.67;;;;;;;30.12;35.21;99816.19;4448271;32;33860;-63
2022/08/07 10:24:25;;;;;;;6.82;3.62;;;;;;;29.83;35.32;99812.47;4464504;32;33724;-62
2022/08/07 10:27:24;;;;;;;5.70;3.53;;;;;;;30.23;34.86;99810.94;4451481;32;32507;-63
2022/08/07 10:30:08;;;;;;;5.00;2.80;;;;;;;30.30;34.69;99806.12;4457127;32;35171;-62
2022/08/07 10:33:03;;;;;;;4.78;2.72;;;;;;;30.23;33.78;99797.97;4452969;32;32327;-63
2022/08/07 10:36:13;;;;;;;4.72;2.95;;;;;;;29.75;34.87;99798.19;4453015;32;33869;-63
2022/08/07 10:38:51;;;;;;;5.85;3.05;;;;;;;30.04;34.66;99799.16;4420122;32;33828;-63
2022/08/07 10:41:35;;;;;;;4.50;2.95;;;;;;;29.78;34.45;99798.56;4450542;32;32761;-63
2022/08/07 10:44:51;;;;;;;4.97;3.00;;;;;;;29.64;34.85;99799.88;4465423;32;33719;-63
2022/08/07 10:47:43;;;;;;;4.68;3.17;;;;;;;29.89;34.78;99785.88;4448335;32;33698;-63
2022/08/07 10:50:23;;;;;;;4.90;2.67;;;;;;;29.56;34.74;99794.66;4461894;32;35112;-63
2022/08/07 10:53:07;;;;;;;6.68;3.10;;;;;;;29.19;35.08;99787.41;4450283;32;32817;-63
2022/08/07 10:55:50;;;;;;;5.40;3.60;;;;;;;29.64;35.31;99788.84;4441955;32;33923;-63
2022/08/07 10:58:46;;;;;;;5.35;3.78;;;;;;;29.96;34.78;99782.97;4455510;32;33567;-63
2022/08/07 11:01:35;;;;;;;5.32;2.97;;;;;;;30.21;34.72;99778.06;4454424;32;34094;-63
2022/08/07 11:04:27;;;;;;;7.20;2.97;;;;;;;30.45;34.63;99775.25;4464239;32;34065;-62
2022/08/07 11:07:51;;;;;;;5.28;3.20;;;;;;;30.23;34.66;99778.66;4466200;32;34413;-62
2022/08/07 11:10:47;;;;;;;4.87;2.62;;;;;;;29.96;34.87;99774.69;4454298;32;33357;-63
2022/08/07 11:13:32;;;;;;;5.32;2.90;;;;;;;30.35;35.33;99765.66;4454353;32;33998;-63
2022/08/07 11:16:26;;;;;;;5.10;2.90;;;;;;;30.84;33.62;99765.28;4464598;32;33868;-62
2022/08/07 11:19:05;;;;;;;5.28;3.10;;;;;;;30.56;33.70;99768.84;4453547;32;34752;-64
2022/08/07 11:21:43;;;;;;;4.55;2.80;;;;;;;30.85;32.97;99765.03;4458893;32;32787;-63
2022/08/07 11:24:27;;;;;;;5.20;3.10;;;;;;;30.88;32.90;99760.94;4466101;32;33774;-63
2022/08/07 11:27:19;;;;;;;5.87;3.00;;;;;;;31.23;32.27;99757.13;4446896;32;34106;-63
2022/08/07 11:30:13;;;;;;;4.95;2.50;;;;;;;31.21;31.95;99749.09;4458909;32;34014;-63
2022/08/07 11:33:02;;;;;;;4.03;2.80;;;;;;;31.73;31.50;99743.34;4452778;32;32129;-63
2022/08/07 11:35:52;;;;;;;10.75;3.45;;;;;;;31.30;32.06;99746.75;4462243;32;35330;-63
2022/08/07 11:38:42;;;;;;;4.47;2.87;;;;;;;31.51;31.85;99747.97;4452457;32;33660;-63
2022/08/07 11:41:22;;;;;;;5.90;2.78;;;;;;;30.93;32.03;99752.75;4440781;32;34627;-63
2022/08/07 11:44:23;;;;;;;5.18;2.78;;;;;;;31.48;31.22;99740.16;4445017;32;33489;-65
2022/08/07 11:46:57;;;;;;;4.57;2.83;;;;;;;31.47;31.36;99739.34;4457684;32;33886;-62
2022/08/07 11:49:41;;;;;;;4.53;2.72;;;;;;;31.77;31.49;99733.44;4443310;32;34076;-63
2022/08/07 11:53:02;;;;;;;4.40;2.75;;;;;;;31.62;30.80;99733.22;4456631;32;30920;-63
2022/08/07 11:55:36;;;;;;;5.00;3.03;;;;;;;32.05;30.10;99728.88;4460239;32;33654;-63
2022/08/07 11:58:36;;;;;;;5.05;2.95;;;;;;;31.91;30.67;99727.56;4450180;32;34850;-63
2022/08/07 12:01:32;;;;;;;5.47;2.75;;;;;;;31.99;30.76;99721.59;4460335;32;33070;-63
2022/08/07 12:04:45;;;;;;;4.90;2.85;;;;;;;31.87;30.94;99720.84;4456744;32;33523;-63
2022/08/07 12:07:23;;;;;;;4.97;2.90;;;;;;;31.78;30.47;99710.22;4460159;32;33856;-63
2022/08/07 12:10:02;;;;;;;4.40;2.78;;;;;;;31.97;31.38;99710.75;4445029;32;32582;-63
2022/08/07 12:12:44;;;;;;;5.53;3.55;;;;;;;31.42;32.09;99710.75;4453757;32;35139;-63
2022/08/07 12:15:17;;;;;;;5.47;3.50;;;;;;;32.11;31.06;99708.47;4442063;32;33529;-63
2022/08/07 12:18:13;;;;;;;4.53;3.05;;;;;;;32.02;31.45;99701.72;4441530;32;33968;-64
2022/08/07 12:21:33;;;;;;;5.93;3.08;;;;;;;32.40;31.10;99699.97;4451645;32;33894;-65
2022/08/07 12:27:39;;;;;;;4.97;2.85;;;;;;;32.20;30.79;99695.87;4453533;32;33474;-64
2022/08/07 12:30:31;;;;;;;4.68;2.85;;;;;;;31.77;31.48;99689.16;4444493;32;33378;-62
2022/08/07 12:33:04;;;;;;;3.90;2.78;;;;;;;32.34;31.15;99690.75;4449960;32;35355;-64
2022/08/07 12:35:51;;;;;;;5.40;3.42;;;;;;;32.38;30.75;99683.59;4448337;32;34996;-64
2022/08/07 12:38:26;;;;;;;4.85;2.97;;;;;;;31.98;31.23;99682.00;4453857;32;34408;-64
2022/08/07 12:41:06;;;;;;;4.82;3.17;;;;;;;31.91;31.94;99683.28;4456587;32;33943;-64
2022/08/07 12:43:38;;;;;;;5.07;3.03;;;;;;;31.81;32.43;99683.94;4460102;32;35209;-64
2022/08/07 12:46:35;;;;;;;5.35;3.10;;;;;;;31.89;32.79;99672.47;4448813;32;33909;-64
2022/08/07 12:49:20;;;;;;;5.18;3.10;;;;;;;31.96;31.99;99677.81;4448593;32;34549;-64
2022/08/07 12:52:13;;;;;;;6.22;3.10;;;;;;;32.08;31.18;99681.31;4443562;32;33582;-64
2022/08/07 12:54:59;;;;;;;4.37;3.10;;;;;;;31.17;32.96;99676.03;4459317;32;34354;-63
2022/08/07 12:57:33;;;;;;;6.53;3.25;;;;;;;31.36;32.42;99675.81;4438950;32;34019;-64
2022/08/07 13:00:28;;;;;;;4.68;2.78;;;;;;;31.64;32.29;99672.94;4439755;32;31901;-64